Time;durP1;ratioP1;P1;durP2;ratioP2;P2;SDS_P1;SDS_P2;PMS_P1;PMS_P2;Temp;Humidity;BMP_temperature;BMP_pressure;BME280_temperature;BME280_humidity;BME280_pressure;Samples;Min_cycle;Max_cycle;Signal;HPM_P1;HPM_P2
2021/12/18 00:01:08;;;;;;;0.80;0.70;;;6.90;99.90;;;;;;5089102;28;20522;-86
2021/12/18 00:03:34;;;;;;;0.80;0.70;;;6.90;99.90;;;;;;5089677;28;20209;-86
2021/12/18 00:06:00;;;;;;;0.80;0.70;;;6.90;99.90;;;;;;5088295;28;20534;-86
2021/12/18 00:08:26;;;;;;;0.80;0.70;;;6.90;99.90;;;;;;5071367;28;20428;-86
2021/12/18 00:10:53;;;;;;;1.10;1.00;;;6.90;99.90;;;;;;5071336;28;20430;-86
2021/12/18 00:13:24;;;;;;;1.83;0.73;;;;;;;;;;5089636;28;20177;-86
2021/12/18 00:15:50;;;;;;;0.80;0.60;;;6.90;99.90;;;;;;5071214;28;20431;-86
2021/12/18 00:18:18;;;;;;;0.80;0.60;;;;;;;;;;5088988;28;20447;-86
2021/12/18 00:20:45;;;;;;;1.27;1.17;;;;;;;;;;5089343;28;20575;-86
2021/12/18 00:23:12;;;;;;;0.80;0.70;;;;;;;;;;5087623;28;21036;-86
2021/12/18 00:25:38;;;;;;;0.80;0.70;;;6.90;99.90;;;;;;5089018;28;20448;-86
2021/12/18 00:28:04;;;;;;;0.80;0.70;;;7.00;99.90;;;;;;5088841;28;20435;-86
2021/12/18 00:30:30;;;;;;;0.80;0.70;;;7.00;99.90;;;;;;5089155;28;20212;-85
2021/12/18 00:32:56;;;;;;;0.80;0.60;;;6.90;99.90;;;;;;5089227;28;20660;-86
2021/12/18 00:35:21;;;;;;;0.80;0.60;;;7.00;99.90;;;;;;5089898;28;20477;-86
2021/12/18 00:37:47;;;;;;;0.80;0.70;;;6.90;99.90;;;;;;5088783;28;20185;-86
2021/12/18 00:40:24;;;;;;;0.80;0.70;;;6.90;99.90;;;;;;5088137;28;20191;-86
2021/12/18 00:42:59;;;;;;;0.97;0.87;;;6.90;99.90;;;;;;5089236;28;20256;-86
2021/12/18 00:45:25;;;;;;;0.80;0.60;;;6.90;99.90;;;;;;5088726;28;20802;-87
2021/12/18 00:47:51;;;;;;;0.80;0.77;;;7.00;99.90;;;;;;5086967;28;20449;-86
2021/12/18 00:50:20;;;;;;;0.80;0.60;;;6.90;99.90;;;;;;5087408;28;20193;-86
2021/12/18 00:52:47;;;;;;;0.80;0.60;;;6.90;99.90;;;;;;5077328;28;20787;-86
2021/12/18 00:55:14;;;;;;;1.30;1.20;;;6.90;99.90;;;;;;5086170;28;20441;-85
2021/12/18 00:57:40;;;;;;;0.80;0.60;;;6.90;99.90;;;;;;5070387;28;20434;-86
2021/12/18 01:00:10;;;;;;;1.20;1.10;;;7.00;99.90;;;;;;5089368;28;20435;-86
2021/12/18 01:02:37;;;;;;;2.40;2.20;;;7.00;99.90;;;;;;5092417;28;20462;-86
2021/12/18 01:05:06;;;;;;;0.80;0.67;;;7.00;99.90;;;;;;5090714;28;20447;-86
2021/12/18 01:07:32;;;;;;;0.80;0.70;;;7.00;99.90;;;;;;5091858;28;20470;-86
2021/12/18 01:10:07;;;;;;;0.80;0.60;;;6.70;99.90;;;;;;5092373;28;20463;-86
2021/12/18 01:12:39;;;;;;;0.80;0.70;;;7.00;99.90;;;;;;5074891;28;20568;-86
2021/12/18 01:15:16;;;;;;;0.80;0.70;;;6.90;99.90;;;;;;5087255;28;20434;-85
2021/12/18 01:23:10;;;;;;;0.80;0.60;;;7.00;99.90;;;;;;5092571;28;20485;-86
2021/12/18 01:25:36;;;;;;;2.87;2.67;;;6.90;99.90;;;;;;5091726;28;20415;-85
2021/12/18 01:28:02;;;;;;;0.80;0.70;;;7.00;99.90;;;;;;5090939;28;20188;-86
2021/12/18 01:30:27;;;;;;;1.33;1.00;;;7.00;99.90;;;;;;5092032;28;20189;-86
2021/12/18 01:32:54;;;;;;;0.90;0.77;;;7.00;99.90;;;;;;5091194;28;20949;-85
2021/12/18 01:35:22;;;;;;;0.80;0.60;;;7.00;99.90;;;;;;5090255;28;20192;-86
2021/12/18 01:37:49;;;;;;;0.80;0.60;;;7.00;99.90;;;;;;5090562;28;20449;-86
2021/12/18 01:40:15;;;;;;;1.10;1.00;;;7.00;99.90;;;;;;5093265;28;20835;-86
2021/12/18 01:45:30;;;;;;;0.80;0.70;;;;;;;;;;5090531;28;20455;-85
2021/12/18 01:53:26;;;;;;;0.80;0.70;;;;;;;;;;5083992;28;20509;-85
2021/12/18 01:55:52;;;;;;;0.80;0.70;;;;;;;;;;5091221;28;20485;-86
2021/12/18 01:58:22;;;;;;;0.80;0.60;;;;;;;;;;5089659;28;20431;-85
2021/12/18 02:00:49;;;;;;;0.80;0.60;;;6.80;99.90;;;;;;5092587;28;20442;-86
2021/12/18 02:03:15;;;;;;;0.80;0.70;;;6.90;99.90;;;;;;5090124;28;20513;-86
2021/12/18 02:05:41;;;;;;;0.80;0.67;;;6.90;99.90;;;;;;5091490;28;20521;-85
2021/12/18 02:08:07;;;;;;;0.80;0.60;;;6.90;99.90;;;;;;5090270;28;20186;-86
2021/12/18 02:10:44;;;;;;;0.80;0.60;;;6.90;99.90;;;;;;5091416;28;20177;-85
2021/12/18 02:21:22;;;;;;;0.80;0.70;;;;;;;;;;5092276;28;20469;-86
2021/12/18 02:23:49;;;;;;;0.80;0.60;;;;;;;;;;5091157;28;20878;-86
2021/12/18 02:26:18;;;;;;;0.80;0.60;;;;;;;;;;5089752;28;20450;-86
2021/12/18 02:28:48;;;;;;;0.80;0.60;;;;;;;;;;5091994;28;20435;-85
2021/12/18 02:31:14;;;;;;;0.80;0.70;;;6.70;99.90;;;;;;5090436;28;20450;-86
2021/12/18 02:33:40;;;;;;;0.80;0.60;;;6.80;99.90;;;;;;5090957;28;20446;-86
2021/12/18 02:36:09;;;;;;;0.80;0.60;;;6.80;99.90;;;;;;5086566;28;20534;-86
2021/12/18 02:41:29;;;;;;;0.80;0.60;;;6.80;99.90;;;;;;5084440;28;20447;-86
2021/12/18 02:44:01;;;;;;;0.80;0.70;;;6.50;99.90;;;;;;5086622;28;20585;-86
2021/12/18 02:46:27;;;;;;;0.80;0.60;;;6.70;99.90;;;;;;5074000;28;20845;-85
2021/12/18 02:48:54;;;;;;;0.80;0.60;;;6.80;99.90;;;;;;5071107;28;20447;-86
2021/12/18 02:51:21;;;;;;;0.80;0.60;;;;;;;;;;5091189;28;20423;-86
2021/12/18 02:53:53;;;;;;;0.80;0.60;;;6.80;99.90;;;;;;5090335;28;20549;-86
2021/12/18 02:56:23;;;;;;;0.80;0.60;;;6.70;99.90;;;;;;5074538;28;20433;-86
2021/12/18 02:58:53;;;;;;;0.80;0.60;;;6.80;99.90;;;;;;5089343;28;20974;-84
2021/12/18 03:01:22;;;;;;;0.80;0.60;;;7.10;99.90;;;;;;5090065;28;20943;-86
2021/12/18 03:03:49;;;;;;;1.20;1.03;;;6.70;99.90;;;;;;5089779;28;20486;-85
2021/12/18 03:08:53;;;;;;;0.80;0.70;;;6.70;99.90;;;;;;5085868;28;21065;-86
2021/12/18 03:25:09;;;;;;;0.80;0.60;;;6.80;99.90;;;;;;5091472;28;20484;-86
2021/12/18 03:27:35;;;;;;;0.80;0.70;;;6.80;99.90;;;;;;5089373;28;20493;-86
2021/12/18 03:30:00;;;;;;;0.80;0.70;;;6.70;99.90;;;;;;5078589;28;20471;-86
2021/12/18 03:32:26;;;;;;;0.80;0.70;;;6.70;99.90;;;;;;5090126;28;20213;-85
2021/12/18 03:34:53;;;;;;;0.80;0.60;;;6.60;99.90;;;;;;5072569;28;20177;-86
2021/12/18 03:37:19;;;;;;;0.80;0.60;;;6.60;99.90;;;;;;5071203;28;20443;-85
2021/12/18 03:39:46;;;;;;;0.80;0.70;;;6.50;99.90;;;;;;5077481;28;20868;-86
2021/12/18 03:42:14;;;;;;;0.80;0.60;;;;;;;;;;5089438;28;20442;-85
2021/12/18 03:44:40;;;;;;;0.80;0.70;;;6.40;99.90;;;;;;5087767;28;20985;-84
2021/12/18 03:47:06;;;;;;;0.80;0.70;;;6.50;99.90;;;;;;5089176;28;20445;-86
2021/12/18 03:49:33;;;;;;;0.80;0.60;;;6.30;99.90;;;;;;5090317;28;20189;-86
2021/12/18 03:51:58;;;;;;;0.80;0.70;;;6.50;99.90;;;;;;5087177;28;20439;-86
2021/12/18 03:54:24;;;;;;;0.80;0.60;;;6.50;99.90;;;;;;5089060;28;20504;-86
2021/12/18 03:56:50;;;;;;;0.80;0.70;;;6.40;99.90;;;;;;5069270;28;20185;-85
2021/12/18 03:59:16;;;;;;;0.80;0.70;;;5.70;99.90;;;;;;5087978;28;20254;-85
2021/12/18 04:01:42;;;;;;;1.77;1.67;;;6.40;99.90;;;;;;5074576;28;20821;-86
2021/12/18 04:04:07;;;;;;;0.80;0.70;;;6.10;99.90;;;;;;5089906;28;20819;-86
2021/12/18 04:06:33;;;;;;;0.80;0.70;;;6.40;99.90;;;;;;5089205;28;20260;-86
2021/12/18 04:08:59;;;;;;;1.37;1.27;;;6.10;99.90;;;;;;5089306;28;20217;-85
2021/12/18 04:11:28;;;;;;;0.80;0.70;;;;;;;;;;5086514;28;20459;-85
2021/12/18 04:13:54;;;;;;;0.80;0.70;;;;;;;;;;5070714;28;20934;-86
2021/12/18 04:16:21;;;;;;;0.80;0.70;;;6.40;99.90;;;;;;5087701;28;20450;-88
2021/12/18 04:18:46;;;;;;;0.80;0.70;;;6.40;99.90;;;;;;5088921;28;20459;-88
2021/12/18 04:21:12;;;;;;;0.80;0.70;;;6.40;99.90;;;;;;5088053;28;20502;-88
2021/12/18 04:23:38;;;;;;;1.70;1.17;;;6.40;99.90;;;;;;5056789;28;20228;-88
2021/12/18 04:26:03;;;;;;;4.50;2.20;;;6.30;99.90;;;;;;5087609;28;20210;-88
2021/12/18 04:28:29;;;;;;;0.80;0.70;;;6.30;99.90;;;;;;5085193;28;20193;-87
2021/12/18 04:30:54;;;;;;;0.80;0.60;;;6.40;99.90;;;;;;5088233;28;20181;-88
2021/12/18 04:33:20;;;;;;;0.80;0.70;;;6.40;99.90;;;;;;5089075;28;20195;-87
2021/12/18 04:35:45;;;;;;;2.23;1.20;;;6.40;99.90;;;;;;5086379;28;20185;-89
2021/12/18 04:38:11;;;;;;;0.80;0.63;;;6.30;99.90;;;;;;5088515;28;20221;-85
2021/12/18 04:40:36;;;;;;;0.80;0.70;;;6.20;99.90;;;;;;5088615;28;20189;-87
2021/12/18 04:43:03;;;;;;;0.83;0.83;;;6.30;99.90;;;;;;5086737;28;20325;-87
2021/12/18 04:45:30;;;;;;;0.80;0.70;;;6.30;99.90;;;;;;5087115;28;20264;-88
2021/12/18 04:47:56;;;;;;;0.80;0.70;;;6.20;99.90;;;;;;5089643;28;20434;-88
2021/12/18 04:50:22;;;;;;;0.80;0.70;;;6.20;99.90;;;;;;5087819;28;20442;-88
2021/12/18 04:52:47;;;;;;;0.80;0.63;;;6.20;99.90;;;;;;5088077;28;20451;-89
2021/12/18 04:55:13;;;;;;;0.80;0.70;;;6.20;99.90;;;;;;5089575;28;20573;-87
2021/12/18 04:57:39;;;;;;;0.80;0.70;;;6.20;99.90;;;;;;5073920;28;20241;-88
2021/12/18 05:00:08;;;;;;;0.80;0.70;;;6.20;99.90;;;;;;5086740;28;20203;-87
2021/12/18 05:02:40;;;;;;;0.80;0.63;;;6.20;99.90;;;;;;5088161;28;20208;-88
2021/12/18 05:05:07;;;;;;;0.80;0.60;;;6.10;99.90;;;;;;5072340;28;20462;-88
2021/12/18 05:07:32;;;;;;;0.80;0.60;;;6.10;99.90;;;;;;5087458;28;20537;-88
2021/12/18 05:09:58;;;;;;;0.80;0.60;;;6.10;99.90;;;;;;5087641;28;20530;-87
2021/12/18 05:12:24;;;;;;;0.80;0.70;;;6.10;99.90;;;;;;5088630;28;20209;-86
2021/12/18 05:14:49;;;;;;;0.80;0.70;;;6.20;99.90;;;;;;5087284;28;20254;-88
2021/12/18 05:17:15;;;;;;;0.80;0.70;;;6.10;99.90;;;;;;5089063;28;20197;-87
2021/12/18 05:19:40;;;;;;;1.23;1.13;;;6.10;99.90;;;;;;5087950;28;20189;-87
2021/12/18 05:22:06;;;;;;;0.80;0.70;;;6.20;99.90;;;;;;5087475;28;20221;-88
2021/12/18 05:24:31;;;;;;;0.80;0.70;;;6.20;99.90;;;;;;5088989;28;20269;-88
2021/12/18 05:26:58;;;;;;;0.80;0.60;;;6.20;99.90;;;;;;5068641;28;20186;-87
2021/12/18 05:29:24;;;;;;;0.80;0.70;;;6.10;99.90;;;;;;5087881;28;20193;-87
2021/12/18 05:31:49;;;;;;;0.80;0.70;;;6.20;99.90;;;;;;5087258;28;20454;-87
2021/12/18 05:34:21;;;;;;;0.80;0.70;;;6.20;99.90;;;;;;5089072;28;20526;-86
2021/12/18 05:39:21;;;;;;;0.80;0.70;;;6.20;99.90;;;;;;5084449;28;20457;-88
2021/12/18 05:41:47;;;;;;;0.80;0.60;;;6.20;99.90;;;;;;5089322;28;20429;-88
2021/12/18 05:44:14;;;;;;;0.80;0.60;;;6.10;99.90;;;;;;5087652;28;20578;-88
2021/12/18 05:46:40;;;;;;;0.90;0.80;;;6.20;99.90;;;;;;5090165;28;20990;-88
2021/12/18 05:49:05;;;;;;;0.80;0.70;;;6.30;99.90;;;;;;5091564;28;20576;-87
2021/12/18 05:51:32;;;;;;;0.80;0.70;;;6.20;99.90;;;;;;5092091;28;20186;-88
2021/12/18 05:53:58;;;;;;;0.93;0.83;;;6.20;99.90;;;;;;5092239;28;20276;-87
2021/12/18 05:56:23;;;;;;;0.80;0.70;;;6.20;99.90;;;;;;5092040;28;20576;-88
2021/12/18 05:58:49;;;;;;;1.23;1.13;;;6.20;99.90;;;;;;5074235;28;20177;-88
2021/12/18 06:01:14;;;;;;;1.20;1.10;;;6.30;99.90;;;;;;5069849;28;20181;-87
2021/12/18 06:03:41;;;;;;;0.80;0.70;;;6.20;99.90;;;;;;5089917;28;20341;-87
2021/12/18 06:06:07;;;;;;;0.80;0.80;;;6.30;99.90;;;;;;5073693;28;20439;-88
2021/12/18 06:08:34;;;;;;;0.80;0.67;;;6.30;99.90;;;;;;5091668;28;20416;-88
2021/12/18 06:11:06;;;;;;;0.80;0.60;;;6.20;99.90;;;;;;5091016;28;20270;-88
2021/12/18 06:13:31;;;;;;;1.00;0.90;;;6.30;99.90;;;;;;5091694;28;20925;-88
2021/12/18 06:15:57;;;;;;;0.80;0.70;;;6.20;99.90;;;;;;5090360;28;20443;-88
2021/12/18 06:18:22;;;;;;;0.80;0.70;;;6.30;99.90;;;;;;5091728;28;20188;-87
2021/12/18 06:20:48;;;;;;;0.80;0.70;;;6.30;99.90;;;;;;5092302;28;20188;-87
2021/12/18 06:23:13;;;;;;;0.80;0.70;;;6.30;99.90;;;;;;5092452;28;20246;-88
2021/12/18 06:25:39;;;;;;;0.80;0.60;;;6.30;99.90;;;;;;5074131;28;20193;-87
2021/12/18 06:28:04;;;;;;;1.53;0.80;;;6.30;99.90;;;;;;5091624;28;20824;-86
2021/12/18 06:30:30;;;;;;;0.80;0.67;;;6.30;99.90;;;;;;5092288;28;20191;-87
2021/12/18 06:32:55;;;;;;;1.17;1.07;;;6.30;99.90;;;;;;5090062;28;20189;-87
2021/12/18 06:35:21;;;;;;;0.80;0.70;;;6.20;99.90;;;;;;5072462;28;20274;-88
2021/12/18 06:37:47;;;;;;;0.80;0.70;;;6.20;99.90;;;;;;5074900;28;20200;-88
2021/12/18 06:40:12;;;;;;;0.80;0.67;;;6.20;99.90;;;;;;5075984;28;20636;-89
2021/12/18 06:42:39;;;;;;;0.80;0.70;;;6.20;99.90;;;;;;5072534;28;20224;-89
2021/12/18 06:45:05;;;;;;;0.80;0.70;;;6.20;99.90;;;;;;5091879;28;20192;-89
2021/12/18 06:47:31;;;;;;;0.80;0.70;;;6.20;99.90;;;;;;5073243;28;20518;-89
2021/12/18 06:49:56;;;;;;;0.80;0.60;;;6.30;99.90;;;;;;5090511;28;20530;-88
2021/12/18 06:52:22;;;;;;;0.80;0.73;;;6.30;99.90;;;;;;5090948;28;20185;-89
2021/12/18 06:54:47;;;;;;;0.80;0.70;;;6.20;99.90;;;;;;5090853;28;20227;-89
2021/12/18 06:57:13;;;;;;;0.80;0.70;;;6.30;99.90;;;;;;5091719;28;20238;-89
2021/12/18 06:59:39;;;;;;;0.90;0.77;;;6.20;99.90;;;;;;5073729;28;20174;-88
2021/12/18 07:02:04;;;;;;;0.80;0.70;;;6.20;99.90;;;;;;5090008;28;20937;-89
2021/12/18 07:04:30;;;;;;;1.40;0.93;;;6.20;99.90;;;;;;5070941;28;20223;-88
2021/12/18 07:06:55;;;;;;;0.80;0.70;;;6.20;99.90;;;;;;5071467;28;20234;-88
2021/12/18 07:09:21;;;;;;;0.80;0.70;;;6.30;99.90;;;;;;5066950;28;20215;-89
2021/12/18 07:11:47;;;;;;;0.80;0.60;;;6.30;99.90;;;;;;5090411;28;20625;-89
2021/12/18 07:14:13;;;;;;;0.93;0.80;;;6.30;99.90;;;;;;5091522;28;20436;-88
2021/12/18 07:16:39;;;;;;;0.80;0.70;;;6.30;99.90;;;;;;5073169;28;20276;-88
2021/12/18 07:19:04;;;;;;;0.80;0.70;;;6.30;99.90;;;;;;5091405;28;20221;-89
2021/12/18 07:21:30;;;;;;;0.80;0.60;;;6.30;99.90;;;;;;5091012;28;20482;-89
2021/12/18 07:23:55;;;;;;;1.63;1.53;;;6.30;99.90;;;;;;5073007;28;20216;-88
2021/12/18 07:26:21;;;;;;;0.80;0.63;;;6.30;99.90;;;;;;5091080;28;20396;-89
2021/12/18 07:28:46;;;;;;;0.80;0.60;;;6.30;99.90;;;;;;5090304;28;20181;-89
2021/12/18 07:31:12;;;;;;;0.80;0.70;;;6.40;99.90;;;;;;5087372;28;20241;-87
2021/12/18 07:33:41;;;;;;;1.47;1.37;;;6.30;99.90;;;;;;5072354;28;20181;-87
2021/12/18 07:36:08;;;;;;;0.80;0.60;;;6.30;99.90;;;;;;5088901;28;20181;-86
2021/12/18 07:38:34;;;;;;;0.80;0.60;;;6.40;99.90;;;;;;5070544;28;20495;-88
2021/12/18 07:40:59;;;;;;;0.80;0.80;;;6.40;99.90;;;;;;5070953;28;20442;-88
2021/12/18 07:43:25;;;;;;;1.10;1.00;;;6.40;99.90;;;;;;5084275;28;20466;-88
2021/12/18 07:45:50;;;;;;;1.10;1.00;;;6.40;99.90;;;;;;5089073;28;20254;-86
2021/12/18 07:48:16;;;;;;;0.80;0.70;;;6.40;99.90;;;;;;5090131;28;20185;-89
2021/12/18 07:50:42;;;;;;;0.80;0.63;;;6.40;99.90;;;;;;5089477;28;20185;-89
2021/12/18 07:53:07;;;;;;;0.80;0.60;;;6.40;99.90;;;;;;5089561;28;20197;-88
2021/12/18 07:55:33;;;;;;;0.80;0.70;;;6.40;99.90;;;;;;5087406;28;20627;-88
2021/12/18 07:57:58;;;;;;;2.63;2.30;;;6.40;99.90;;;;;;5090524;28;20189;-89
2021/12/18 08:00:24;;;;;;;0.80;0.70;;;6.40;99.90;;;;;;5089151;28;20185;-88
2021/12/18 08:02:50;;;;;;;0.80;0.70;;;6.40;99.90;;;;;;5090778;28;20276;-88
2021/12/18 08:05:16;;;;;;;0.80;0.70;;;6.40;99.90;;;;;;5090624;28;20537;-87
2021/12/18 08:07:41;;;;;;;0.80;0.70;;;6.40;99.90;;;;;;5072644;28;20243;-87
2021/12/18 08:10:08;;;;;;;0.80;0.63;;;6.40;99.90;;;;;;5089846;28;20196;-87
2021/12/18 08:12:33;;;;;;;0.80;0.60;;;6.50;99.90;;;;;;5072631;28;20195;-88
2021/12/18 08:14:59;;;;;;;0.80;0.70;;;6.50;99.90;;;;;;5090594;28;20518;-88
2021/12/18 08:17:25;;;;;;;0.80;0.70;;;6.50;99.90;;;;;;5072918;28;20219;-88
2021/12/18 08:19:51;;;;;;;0.80;0.60;;;6.50;99.90;;;;;;5074125;28;20181;-88
2021/12/18 08:22:17;;;;;;;1.33;1.00;;;6.60;99.90;;;;;;5066073;28;20475;-88
2021/12/18 08:24:42;;;;;;;0.80;0.60;;;6.60;99.90;;;;;;5089755;28;20851;-88
2021/12/18 08:27:08;;;;;;;0.80;0.60;;;6.60;99.90;;;;;;5090658;28;20196;-86
2021/12/18 08:29:34;;;;;;;0.80;0.70;;;6.60;99.90;;;;;;5071604;28;20189;-87
2021/12/18 08:32:00;;;;;;;0.90;0.90;;;6.60;99.90;;;;;;5065339;28;20727;-86
2021/12/18 08:34:25;;;;;;;1.40;0.90;;;6.60;99.90;;;;;;5088011;28;20463;-86
2021/12/18 08:36:51;;;;;;;0.80;0.70;;;6.60;99.90;;;;;;5090166;28;20215;-87
2021/12/18 08:39:17;;;;;;;0.80;0.60;;;6.60;99.90;;;;;;5067683;28;20203;-88
2021/12/18 08:41:45;;;;;;;1.23;1.13;;;6.70;99.90;;;;;;5089416;28;20267;-87
2021/12/18 08:44:10;;;;;;;0.90;0.80;;;6.70;99.90;;;;;;5089013;28;20515;-88
2021/12/18 08:46:36;;;;;;;0.80;0.60;;;6.70;99.90;;;;;;5089983;28;20524;-88
2021/12/18 08:49:03;;;;;;;0.80;0.70;;;6.60;99.90;;;;;;5088471;28;20196;-87
2021/12/18 08:51:29;;;;;;;0.80;0.63;;;6.70;99.90;;;;;;5089899;28;20589;-86
2021/12/18 08:53:54;;;;;;;0.80;0.70;;;6.70;99.90;;;;;;5088566;28;21031;-88
2021/12/18 08:56:20;;;;;;;0.80;0.70;;;6.80;99.90;;;;;;5088828;28;20177;-88
2021/12/18 08:58:45;;;;;;;0.80;0.70;;;6.70;99.90;;;;;;5072060;28;20181;-86
2021/12/18 09:01:11;;;;;;;0.80;0.60;;;6.70;99.90;;;;;;5087124;28;20193;-85
2021/12/18 09:03:36;;;;;;;0.80;0.70;;;6.80;99.90;;;;;;5070579;28;20215;-89
2021/12/18 09:06:02;;;;;;;0.80;0.70;;;6.80;99.90;;;;;;5089866;28;20280;-90
2021/12/18 09:08:28;;;;;;;0.80;0.73;;;6.80;99.90;;;;;;5089113;28;20188;-90
2021/12/18 09:10:54;;;;;;;0.80;0.60;;;6.80;99.90;;;;;;5088632;28;20423;-90
2021/12/18 09:13:20;;;;;;;1.17;1.07;;;6.80;99.90;;;;;;5087798;28;20242;-92
2021/12/18 09:15:45;;;;;;;0.80;0.70;;;6.90;99.90;;;;;;5091852;28;20183;-92
2021/12/18 09:18:11;;;;;;;0.80;0.67;;;6.90;99.90;;;;;;5072656;28;20662;-87
2021/12/18 09:20:37;;;;;;;0.80;0.60;;;6.90;99.90;;;;;;5089529;28;20203;-88
2021/12/18 09:23:02;;;;;;;0.80;0.60;;;6.90;99.90;;;;;;5093182;28;20236;-88
2021/12/18 09:25:29;;;;;;;0.80;0.70;;;6.90;99.90;;;;;;5093322;28;20212;-88
2021/12/18 09:27:56;;;;;;;0.80;0.60;;;6.90;99.90;;;;;;5093417;28;20652;-88
2021/12/18 09:30:23;;;;;;;0.80;0.60;;;7.00;99.90;;;;;;5088914;28;20469;-88
2021/12/18 09:32:49;;;;;;;0.80;0.70;;;7.00;99.90;;;;;;5091600;28;20629;-83
2021/12/18 09:35:15;;;;;;;0.80;0.60;;;7.00;99.90;;;;;;5093054;28;20439;-84
2021/12/18 09:37:43;;;;;;;0.80;0.60;;;7.10;99.90;;;;;;5092746;28;20466;-83
2021/12/18 09:40:11;;;;;;;4.97;1.53;;;7.10;99.90;;;;;;5091690;28;20466;-83
2021/12/18 09:42:38;;;;;;;0.80;0.70;;;7.20;99.90;;;;;;5092197;28;20427;-84
2021/12/18 09:45:04;;;;;;;0.80;0.60;;;7.10;99.90;;;;;;5092232;28;21015;-84
2021/12/18 09:47:30;;;;;;;0.80;0.70;;;7.20;99.90;;;;;;5090738;28;20447;-85
2021/12/18 09:49:57;;;;;;;1.07;0.97;;;7.20;99.90;;;;;;5092421;28;20516;-85
2021/12/18 09:52:25;;;;;;;2.90;0.90;;;7.30;99.90;;;;;;5090079;28;20173;-85
2021/12/18 09:54:56;;;;;;;0.80;0.60;;;7.30;99.90;;;;;;5092078;28;20839;-85
2021/12/18 09:57:21;;;;;;;0.80;0.70;;;7.30;99.90;;;;;;5073035;28;20440;-84
2021/12/18 09:59:47;;;;;;;0.80;0.67;;;7.30;99.90;;;;;;5090792;28;20432;-84
2021/12/18 10:02:12;;;;;;;0.80;0.60;;;7.40;99.90;;;;;;5091446;28;20564;-83
2021/12/18 10:04:38;;;;;;;0.80;0.60;;;7.40;99.90;;;;;;5088694;28;20693;-83
2021/12/18 10:07:23;;;;;;;0.80;0.60;;;7.40;99.90;;;;;;5090693;28;20187;-84
2021/12/18 10:09:51;;;;;;;0.90;0.80;;;7.40;99.90;;;;;;5091936;28;20656;-84
2021/12/18 10:12:22;;;;;;;0.80;0.60;;;7.50;99.90;;;;;;5090971;28;20427;-84
2021/12/18 10:14:56;;;;;;;0.80;0.50;;;7.50;99.90;;;;;;5091101;28;20943;-84
2021/12/18 10:17:31;;;;;;;0.80;0.80;;;7.60;99.90;;;;;;5072921;28;20442;-83
2021/12/18 10:20:20;;;;;;;1.17;1.07;;;7.60;99.90;;;;;;5090169;28;20431;-84
2021/12/18 10:22:51;;;;;;;0.80;0.70;;;7.70;99.90;;;;;;5090049;28;20478;-84
2021/12/18 10:25:22;;;;;;;2.00;1.00;;;7.70;99.90;;;;;;5089888;28;20462;-84
2021/12/18 10:28:02;;;;;;;0.80;0.60;;;7.70;99.90;;;;;;5091472;28;20941;-85
2021/12/18 10:30:28;;;;;;;0.80;0.70;;;7.70;99.90;;;;;;5090961;28;20430;-84
2021/12/18 10:33:11;;;;;;;0.80;0.60;;;7.70;99.90;;;;;;5090834;28;20423;-84
2021/12/18 10:35:50;;;;;;;0.80;0.70;;;7.80;99.90;;;;;;5089277;28;20188;-83
2021/12/18 10:38:48;;;;;;;0.90;0.73;;;7.80;99.90;;;;;;5092023;28;20446;-84
2021/12/18 10:41:35;;;;;;;0.80;0.60;;;7.80;99.90;;;;;;5092018;28;20961;-84
2021/12/18 10:44:10;;;;;;;0.80;0.70;;;7.80;99.90;;;;;;5087061;28;20478;-83
2021/12/18 10:46:42;;;;;;;0.80;0.70;;;7.80;99.90;;;;;;5090630;28;20434;-83
2021/12/18 10:49:15;;;;;;;1.27;1.00;;;7.90;99.90;;;;;;5089149;28;20477;-83
2021/12/18 10:51:43;;;;;;;1.37;1.27;;;7.90;99.90;;;;;;5089583;28;20788;-82
2021/12/18 10:54:24;;;;;;;0.80;0.60;;;7.90;99.90;;;;;;5089935;28;20510;-84
2021/12/18 10:56:53;;;;;;;0.80;0.70;;;8.00;99.90;;;;;;5082531;28;20439;-84
2021/12/18 10:59:23;;;;;;;0.80;0.60;;;8.00;99.90;;;;;;5089942;28;20439;-84
2021/12/18 11:01:57;;;;;;;0.80;0.60;;;8.00;99.90;;;;;;5090788;28;20442;-84
2021/12/18 11:04:31;;;;;;;0.80;0.60;;;8.00;99.90;;;;;;5090332;28;20478;-84
2021/12/18 11:06:58;;;;;;;0.80;0.60;;;7.90;99.90;;;;;;5091132;28;20429;-85
2021/12/18 11:09:31;;;;;;;0.80;0.60;;;8.00;99.90;;;;;;5089677;28;20455;-84
2021/12/18 11:14:29;;;;;;;32.40;2.00;;;8.10;99.90;;;;;;5089928;28;20435;-85
2021/12/18 11:16:59;;;;;;;0.80;0.60;;;8.10;99.90;;;;;;5088763;28;20875;-83
2021/12/18 11:19:27;;;;;;;0.80;0.60;;;8.10;99.90;;;;;;5089920;28;20446;-84
2021/12/18 11:21:55;;;;;;;0.80;0.60;;;8.00;99.90;;;;;;5088511;28;20463;-80
2021/12/18 11:24:27;;;;;;;0.80;0.60;;;8.10;99.90;;;;;;5090700;28;20486;-81
2021/12/18 11:26:59;;;;;;;0.80;0.70;;;8.10;99.90;;;;;;5088042;28;20450;-81
2021/12/18 11:29:44;;;;;;;0.80;0.60;;;8.10;99.90;;;;;;5087217;28;20449;-82
2021/12/18 11:32:28;;;;;;;1.27;1.17;;;8.10;99.90;;;;;;5088056;28;20446;-81
2021/12/18 11:34:56;;;;;;;0.80;0.60;;;8.10;99.90;;;;;;5080509;28;20449;-83
2021/12/18 11:37:24;;;;;;;0.80;0.60;;;8.10;99.90;;;;;;5086982;28;20522;-81
2021/12/18 11:39:51;;;;;;;1.03;0.93;;;8.10;99.90;;;;;;5088538;28;20443;-82
2021/12/18 11:42:17;;;;;;;0.90;0.80;;;8.10;99.90;;;;;;5071267;28;20947;-82
2021/12/18 11:44:55;;;;;;;0.80;0.60;;;8.10;99.90;;;;;;5088859;28;20490;-81
2021/12/18 11:47:43;;;;;;;1.63;1.10;;;8.10;99.90;;;;;;5085568;28;20447;-81
2021/12/18 11:50:28;;;;;;;0.80;0.60;;;8.10;99.90;;;;;;5087399;28;20476;-81
2021/12/18 11:53:03;;;;;;;0.80;0.60;;;8.20;99.90;;;;;;5088547;28;20843;-80
2021/12/18 11:55:48;;;;;;;0.80;0.60;;;8.20;99.90;;;;;;5067296;28;20945;-80
2021/12/18 11:58:16;;;;;;;0.80;0.63;;;8.20;99.90;;;;;;5091452;28;20484;-80
2021/12/18 12:00:44;;;;;;;1.23;1.07;;;8.20;99.90;;;;;;5089081;28;20433;-79
2021/12/18 12:03:25;;;;;;;0.90;0.80;;;8.20;99.90;;;;;;5084330;28;20468;-79
2021/12/18 12:05:50;;;;;;;1.10;0.80;;;8.20;99.90;;;;;;5067782;28;20766;-80
2021/12/18 12:08:51;;;;;;;1.30;1.13;;;8.20;99.90;;;;;;5089271;28;20436;-79
2021/12/18 12:11:25;;;;;;;0.80;0.70;;;8.30;99.90;;;;;;5087489;28;20233;-80
2021/12/18 12:14:16;;;;;;;0.80;0.60;;;8.30;99.90;;;;;;5086187;28;20435;-78
2021/12/18 12:16:45;;;;;;;0.80;0.60;;;8.30;99.90;;;;;;5067160;28;20859;-79
2021/12/18 12:19:12;;;;;;;0.80;0.60;;;8.30;99.90;;;;;;5087617;28;20435;-79
2021/12/18 12:21:38;;;;;;;1.07;0.80;;;8.30;99.90;;;;;;5088811;28;20964;-79
2021/12/18 12:24:05;;;;;;;0.80;0.60;;;8.30;99.90;;;;;;5069042;28;20843;-80
2021/12/18 12:26:30;;;;;;;1.10;1.00;;;8.30;99.90;;;;;;5089452;28;20993;-80
2021/12/18 12:28:56;;;;;;;0.80;0.60;;;8.30;99.90;;;;;;5088665;28;20614;-80
2021/12/18 12:31:22;;;;;;;1.00;0.90;;;8.40;99.90;;;;;;5088605;28;20184;-79
2021/12/18 12:33:49;;;;;;;0.80;0.60;;;8.40;99.90;;;;;;5068314;28;20577;-80
2021/12/18 12:36:26;;;;;;;0.90;0.70;;;8.40;99.90;;;;;;5086987;28;20808;-79
2021/12/18 12:38:51;;;;;;;0.80;0.60;;;8.40;99.90;;;;;;5088432;28;20454;-80
2021/12/18 12:41:41;;;;;;;0.80;0.60;;;8.40;99.90;;;;;;5086680;28;20447;-79
2021/12/18 12:44:31;;;;;;;0.80;0.60;;;8.50;99.90;;;;;;5088454;28;20223;-82
2021/12/18 12:47:17;;;;;;;0.97;0.87;;;8.50;99.90;;;;;;5073410;28;20443;-82
2021/12/18 12:49:46;;;;;;;0.80;0.60;;;8.50;99.90;;;;;;5084842;28;20439;-82
2021/12/18 12:52:16;;;;;;;0.80;0.60;;;8.50;99.90;;;;;;5087409;28;20438;-82
2021/12/18 12:54:51;;;;;;;1.10;0.97;;;8.50;99.90;;;;;;5087991;28;20435;-82
2021/12/18 12:57:23;;;;;;;0.80;0.60;;;;;;;;;;5088031;28;20525;-81
2021/12/18 13:00:17;;;;;;;1.23;1.13;;;8.70;99.90;;;;;;5090952;28;20934;-81
2021/12/18 13:02:55;;;;;;;0.80;0.60;;;8.80;99.90;;;;;;5089528;28;20902;-81
2021/12/18 13:05:23;;;;;;;1.07;0.97;;;9.10;99.90;;;;;;5088718;28;20492;-80
2021/12/18 13:07:51;;;;;;;0.80;0.60;;;9.00;99.90;;;;;;5088023;28;20802;-79
2021/12/18 13:10:18;;;;;;;0.80;0.70;;;9.30;99.90;;;;;;5089818;28;20489;-80
2021/12/18 13:13:08;;;;;;;0.80;0.60;;;9.50;99.90;;;;;;5084086;28;20427;-78
2021/12/18 13:16:02;;;;;;;0.80;0.60;;;9.40;99.90;;;;;;5088094;28;20887;-79
2021/12/18 13:18:31;;;;;;;0.80;0.50;;;9.40;99.90;;;;;;5090393;28;20539;-79
2021/12/18 13:21:00;;;;;;;0.80;0.60;;;9.40;99.90;;;;;;5090486;28;20974;-79
2021/12/18 13:23:38;;;;;;;0.80;0.60;;;9.40;99.90;;;;;;5092137;28;20600;-79
2021/12/18 13:26:06;;;;;;;16.00;2.40;;;9.50;99.90;;;;;;5072226;28;20437;-79
2021/12/18 13:28:32;;;;;;;0.80;0.50;;;9.50;99.90;;;;;;5105225;28;20919;-80
2021/12/18 13:30:57;;;;;;;1.30;0.60;;;9.70;99.90;;;;;;5071315;28;20511;-81
2021/12/18 13:33:26;;;;;;;0.90;0.60;;;9.60;99.90;;;;;;5092892;28;20655;-81
2021/12/18 13:35:58;;;;;;;0.80;0.60;;;9.60;99.90;;;;;;5092786;28;20226;-80
2021/12/18 13:38:25;;;;;;;0.80;0.60;;;9.60;99.90;;;;;;5092261;28;20522;-80
2021/12/18 13:40:52;;;;;;;0.80;0.67;;;9.30;99.90;;;;;;5090990;28;20569;-80
2021/12/18 13:43:20;;;;;;;1.63;1.53;;;9.30;99.90;;;;;;5091759;28;20539;-80
2021/12/18 13:45:55;;;;;;;0.80;0.63;;;9.10;99.90;;;;;;5070601;28;20443;-80
2021/12/18 13:48:27;;;;;;;1.30;0.80;;;9.00;99.90;;;;;;5075679;28;20438;-81
2021/12/18 13:51:04;;;;;;;0.80;0.60;;;8.90;99.90;;;;;;5092582;28;20517;-81
2021/12/18 13:53:31;;;;;;;0.80;0.60;;;8.80;99.90;;;;;;5073583;28;20427;-81
2021/12/18 13:55:58;;;;;;;0.80;0.60;;;8.70;99.90;;;;;;5091799;28;20780;-81